createdAt,value
2022-11-12T00:00:23.383Z,6.07
2022-11-12T00:02:49.858Z,6.05
2022-11-12T00:05:16.277Z,6.40
2022-11-12T00:07:42.671Z,6.88
2022-11-12T00:10:09.435Z,7.20
2022-11-12T00:12:35.974Z,6.25
2022-11-12T00:15:02.460Z,6.22
2022-11-12T00:17:28.841Z,6.93
2022-11-12T00:19:55.279Z,6.88
2022-11-12T00:22:24.650Z,6.50
2022-11-12T00:24:51.036Z,6.47
2022-11-12T00:27:17.807Z,6.57
2022-11-12T00:29:44.572Z,5.85
2022-11-12T00:32:11.545Z,6.95
2022-11-12T00:34:37.973Z,6.35
2022-11-12T00:37:04.743Z,6.63
2022-11-12T00:39:31.277Z,5.65
2022-11-12T00:41:57.589Z,6.32
2022-11-12T00:44:24.015Z,6.50
2022-11-12T00:46:50.415Z,7.20
2022-11-12T00:49:17.096Z,6.25
2022-11-12T00:51:43.530Z,5.93
2022-11-12T00:54:10.160Z,6.10
2022-11-12T00:56:36.617Z,6.60
2022-11-12T00:59:02.991Z,6.00
2022-11-12T01:01:29.531Z,6.15
2022-11-12T01:03:57.579Z,6.13
2022-11-12T01:06:24.425Z,6.63
2022-11-12T01:08:50.966Z,6.53
2022-11-12T01:11:19.703Z,6.22
2022-11-12T01:13:46.903Z,5.72
2022-11-12T01:16:13.286Z,6.03
2022-11-12T01:18:39.943Z,5.75
2022-11-12T01:21:07.235Z,5.50
2022-11-12T01:23:37.316Z,5.88
2022-11-12T01:26:07.269Z,6.35
2022-11-12T01:28:33.710Z,6.15
2022-11-12T01:31:12.634Z,5.95
2022-11-12T01:33:39.410Z,5.80
2022-11-12T01:36:06.570Z,5.40
2022-11-12T01:38:36.709Z,5.82
2022-11-12T01:41:03.627Z,5.90
2022-11-12T01:43:30.027Z,6.05
2022-11-12T01:45:57.107Z,6.15
2022-11-12T01:48:28.592Z,5.88
2022-11-12T01:50:56.503Z,6.20
2022-11-12T01:53:33.151Z,6.13
2022-11-12T01:56:00.810Z,5.78
2022-11-12T01:58:29.893Z,5.55
2022-11-12T02:00:56.935Z,5.65
2022-11-12T02:03:24.814Z,5.65
2022-11-12T02:06:08.073Z,5.63
2022-11-12T02:08:35.146Z,5.45
2022-11-12T02:11:12.499Z,6.30
2022-11-12T02:13:57.302Z,5.45
2022-11-12T02:16:32.753Z,4.60
2022-11-12T02:18:59.361Z,5.20
2022-11-12T02:21:26.128Z,4.95
2022-11-12T02:24:04.606Z,4.88
2022-11-12T02:26:35.542Z,4.95
2022-11-12T02:29:01.967Z,4.82
2022-11-12T02:31:28.383Z,5.00
2022-11-12T02:33:54.992Z,5.68
2022-11-12T02:36:21.770Z,5.30
2022-11-12T02:38:48.158Z,5.03
2022-11-12T02:41:14.529Z,4.88
2022-11-12T02:43:41.164Z,5.18
2022-11-12T02:46:08.102Z,4.75
2022-11-12T02:48:34.502Z,5.72
2022-11-12T02:51:01.211Z,4.93
2022-11-12T02:53:27.584Z,4.50
2022-11-12T02:55:53.930Z,4.93
2022-11-12T02:58:22.753Z,5.22
2022-11-12T03:00:49.661Z,4.82
2022-11-12T03:03:16.188Z,5.22
2022-11-12T03:05:42.933Z,4.85
2022-11-12T03:08:09.771Z,5.10
2022-11-12T03:10:40.126Z,4.93
2022-11-12T03:13:06.535Z,4.78
2022-11-12T03:15:33.105Z,4.75
2022-11-12T03:17:59.796Z,4.50
2022-11-12T03:20:26.829Z,5.03
2022-11-12T03:23:00.963Z,4.80
2022-11-12T03:25:28.077Z,4.65
2022-11-12T03:28:01.050Z,4.82
2022-11-12T03:30:28.244Z,4.70
2022-11-12T03:32:54.621Z,4.78
2022-11-12T03:35:21.441Z,4.78
2022-11-12T03:37:48.064Z,4.70
2022-11-12T03:40:14.534Z,4.75
2022-11-12T03:42:48.001Z,4.78
2022-11-12T03:45:14.807Z,4.70
2022-11-12T03:47:45.177Z,4.07
2022-11-12T03:50:12.139Z,4.22
2022-11-12T03:52:38.566Z,4.40
2022-11-12T03:55:05.882Z,4.30
2022-11-12T03:57:32.377Z,4.15
2022-11-12T03:59:58.762Z,4.05
2022-11-12T04:02:26.722Z,3.80
2022-11-12T04:05:13.049Z,4.03
2022-11-12T04:07:57.969Z,4.15
2022-11-12T04:10:24.572Z,4.00
2022-11-12T04:13:09.839Z,3.65
2022-11-12T04:15:36.224Z,3.85
2022-11-12T04:18:21.136Z,4.50
2022-11-12T04:21:06.887Z,4.50
2022-11-12T04:23:33.295Z,4.38
2022-11-12T04:26:18.340Z,3.95
2022-11-12T04:29:04.768Z,4.03
2022-11-12T04:31:31.239Z,3.75
2022-11-12T04:34:17.590Z,3.70
2022-11-12T04:36:43.966Z,3.88
2022-11-12T04:39:10.327Z,3.55
2022-11-12T04:41:55.344Z,3.78
2022-11-12T04:44:40.270Z,3.53
2022-11-12T04:47:06.831Z,3.97
2022-11-12T04:49:33.295Z,3.53
2022-11-12T04:52:05.790Z,3.55
2022-11-12T04:54:33.147Z,3.40
2022-11-12T04:57:00.062Z,3.85
2022-11-12T04:59:26.574Z,3.70
2022-11-12T05:01:52.953Z,3.15
2022-11-12T05:04:19.439Z,3.22
2022-11-12T05:06:52.067Z,3.50
2022-11-12T05:09:22.205Z,3.30
2022-11-12T05:11:48.650Z,3.45
2022-11-12T05:14:14.979Z,3.40
2022-11-12T05:16:41.464Z,3.50
2022-11-12T05:19:07.813Z,3.17
2022-11-12T05:21:52.762Z,3.40
2022-11-12T05:24:40.377Z,3.15
2022-11-12T05:27:07.180Z,2.90
2022-11-12T05:29:33.640Z,3.20
2022-11-12T05:32:00.497Z,3.05
2022-11-12T05:34:26.840Z,3.28
2022-11-12T05:36:53.481Z,3.40
2022-11-12T05:39:20.045Z,3.03
2022-11-12T05:42:11.420Z,2.92
2022-11-12T05:44:32.941Z,3.05
2022-11-12T05:46:59.486Z,2.83
2022-11-12T05:49:25.887Z,2.90
2022-11-12T05:51:52.480Z,3.00
2022-11-12T05:54:18.902Z,2.90
2022-11-12T05:56:45.575Z,3.13
2022-11-12T05:59:12.973Z,2.60
2022-11-12T06:01:44.061Z,2.80
2022-11-12T06:04:11.508Z,3.05
2022-11-12T06:06:38.412Z,2.95
2022-11-12T06:09:05.467Z,3.10
2022-11-12T06:11:32.147Z,3.58
2022-11-12T06:13:58.506Z,3.60
2022-11-12T06:16:24.941Z,3.70
2022-11-12T06:18:51.400Z,3.45
2022-11-12T06:21:22.606Z,3.08
2022-11-12T06:23:50.422Z,4.10
2022-11-12T06:26:16.800Z,3.63
2022-11-12T06:28:43.269Z,3.60
2022-11-12T06:31:09.635Z,3.53
2022-11-12T06:33:36.087Z,3.28
2022-11-12T06:36:06.652Z,3.47
2022-11-12T06:38:34.129Z,3.53
2022-11-12T06:41:00.608Z,3.83
2022-11-12T06:43:28.692Z,3.10
2022-11-12T06:45:58.268Z,3.28
2022-11-12T06:48:25.024Z,3.38
2022-11-12T06:50:51.648Z,3.47
2022-11-12T06:53:17.999Z,3.85
2022-11-12T06:55:44.550Z,4.05
2022-11-12T06:58:10.915Z,3.20
2022-11-12T07:00:37.333Z,3.25
2022-11-12T07:03:10.255Z,3.22
2022-11-12T07:05:39.687Z,3.40
2022-11-12T07:08:06.199Z,3.53
2022-11-12T07:10:32.621Z,3.20
2022-11-12T07:12:59.192Z,3.10
2022-11-12T07:15:25.631Z,2.92
2022-11-12T07:17:52.249Z,3.35
2022-11-12T07:20:18.637Z,3.05
2022-11-12T07:22:45.160Z,3.38
2022-11-12T07:25:11.602Z,3.40
2022-11-12T07:27:38.010Z,3.38
2022-11-12T07:30:04.736Z,3.45
2022-11-12T07:32:31.154Z,4.05
2022-11-12T07:34:57.629Z,4.28
2022-11-12T07:37:24.004Z,4.10
2022-11-12T07:39:50.656Z,4.20
2022-11-12T07:42:17.058Z,3.92
2022-11-12T07:44:43.419Z,3.28
2022-11-12T07:47:09.846Z,2.90
2022-11-12T07:49:36.249Z,3.38
2022-11-12T07:52:02.642Z,3.00
2022-11-12T07:54:29.042Z,3.75
2022-11-12T07:56:55.397Z,3.00
2022-11-12T07:59:21.810Z,3.13
2022-11-12T08:01:48.274Z,3.25
2022-11-12T08:04:14.758Z,3.17
2022-11-12T08:06:41.240Z,3.15
2022-11-12T08:09:08.334Z,2.47
2022-11-12T08:11:34.744Z,2.75
2022-11-12T08:14:01.497Z,2.97
2022-11-12T08:16:28.036Z,2.95
2022-11-12T08:18:54.381Z,6.22
2022-11-12T08:21:20.731Z,12.07
2022-11-12T08:23:47.216Z,7.82
2022-11-12T08:26:14.997Z,4.78
2022-11-12T08:28:41.426Z,5.13
2022-11-12T08:31:10.039Z,3.83
2022-11-12T08:33:36.577Z,3.85
2022-11-12T08:36:06.405Z,3.03
2022-11-12T08:38:35.873Z,3.00
2022-11-12T08:41:02.735Z,2.67
2022-11-12T08:43:29.195Z,2.85
2022-11-12T08:45:57.491Z,2.97
2022-11-12T08:48:24.013Z,2.15
2022-11-12T08:50:50.474Z,2.60
2022-11-12T08:53:16.892Z,2.80
2022-11-12T08:55:43.340Z,2.63
2022-11-12T08:58:10.887Z,12.52
2022-11-12T09:00:38.884Z,13.88
2022-11-12T09:03:06.577Z,12.50
2022-11-12T09:05:35.475Z,8.02
2022-11-12T09:08:03.411Z,8.32
2022-11-12T09:10:30.079Z,10.73
2022-11-12T09:12:56.488Z,8.73
2022-11-12T09:15:37.595Z,5.88
2022-11-12T09:18:05.887Z,5.43
2022-11-12T09:20:32.596Z,3.88
2022-11-12T09:23:02.979Z,3.25
2022-11-12T09:25:29.748Z,2.72
2022-11-12T09:27:56.194Z,2.40
2022-11-12T09:30:23.157Z,2.80
2022-11-12T09:32:49.655Z,2.40
2022-11-12T09:35:16.175Z,2.78
2022-11-12T09:37:42.605Z,2.58
2022-11-12T09:40:15.542Z,3.15
2022-11-12T09:42:44.833Z,3.17
2022-11-12T09:45:18.561Z,2.60
2022-11-12T09:47:47.150Z,2.70
2022-11-12T09:50:20.335Z,2.33
2022-11-12T09:52:48.486Z,2.45
2022-11-12T09:55:15.060Z,2.72
2022-11-12T09:57:41.414Z,2.75
2022-11-12T10:00:25.981Z,2.50
2022-11-12T10:02:52.403Z,2.40
2022-11-12T10:05:21.765Z,2.70
2022-11-12T10:07:57.683Z,2.50
2022-11-12T10:10:24.127Z,2.95
2022-11-12T10:12:50.460Z,2.70
2022-11-12T10:15:38.268Z,2.72
2022-11-12T10:18:16.217Z,2.40
2022-11-12T10:20:51.479Z,2.92
2022-11-12T10:23:20.990Z,2.85
2022-11-12T10:25:49.247Z,2.13
2022-11-12T10:28:21.685Z,2.60
2022-11-12T10:30:48.079Z,2.60
2022-11-12T10:33:15.092Z,2.70
2022-11-12T10:35:41.638Z,3.20
2022-11-12T10:38:12.580Z,2.30
2022-11-12T10:40:42.122Z,2.80
2022-11-12T10:43:17.796Z,2.50
2022-11-12T10:45:44.855Z,2.33
2022-11-12T10:48:26.811Z,2.42
2022-11-12T10:50:54.097Z,2.58
2022-11-12T10:53:32.585Z,2.75
2022-11-12T10:56:03.840Z,2.60
2022-11-12T10:58:30.406Z,2.28
2022-11-12T11:01:01.303Z,1.90
2022-11-12T11:03:27.636Z,2.10
2022-11-12T11:05:54.051Z,2.20
2022-11-12T11:08:38.247Z,2.33
2022-11-12T11:11:17.074Z,1.92
2022-11-12T11:13:44.292Z,1.98
2022-11-12T11:16:13.052Z,2.40
2022-11-12T11:18:41.234Z,2.10
2022-11-12T11:21:13.415Z,2.10
2022-11-12T11:24:02.707Z,2.03
2022-11-12T11:27:01.712Z,2.03
2022-11-12T11:29:30.875Z,1.83
2022-11-12T11:32:15.679Z,2.00
2022-11-12T11:34:54.597Z,3.17
2022-11-12T11:37:26.835Z,2.35
2022-11-12T11:40:02.745Z,2.70
2022-11-12T11:42:29.044Z,2.35
2022-11-12T11:45:14.273Z,2.40
2022-11-12T11:48:00.474Z,2.38
2022-11-12T11:50:28.255Z,2.53
2022-11-12T11:53:15.501Z,2.65
2022-11-12T11:55:44.948Z,2.65
2022-11-12T11:58:11.359Z,2.60
2022-11-12T12:01:02.654Z,2.60
2022-11-12T12:03:37.757Z,3.10
2022-11-12T12:06:24.897Z,2.50
2022-11-12T12:09:06.731Z,2.40
2022-11-12T12:11:36.440Z,2.60
2022-11-12T12:14:26.236Z,2.40
2022-11-12T12:17:03.395Z,2.30
2022-11-12T12:19:48.642Z,2.60
2022-11-12T12:22:35.903Z,2.60
2022-11-12T12:25:12.041Z,2.20
2022-11-12T12:27:43.380Z,1.85
2022-11-12T12:30:29.358Z,2.05
2022-11-12T12:35:28.194Z,2.03
2022-11-12T12:38:11.954Z,2.08
2022-11-12T12:40:43.513Z,2.20
2022-11-12T12:43:12.582Z,1.55
2022-11-12T12:45:46.248Z,1.85
2022-11-12T12:48:33.186Z,1.60
2022-11-12T12:50:59.594Z,1.90
2022-11-12T12:53:29.137Z,1.83
2022-11-12T12:56:18.793Z,1.85
2022-11-12T12:58:48.611Z,1.40
2022-11-12T13:01:21.324Z,1.40
2022-11-12T13:04:03.236Z,1.33
2022-11-12T13:06:31.121Z,1.40
2022-11-12T13:09:00.491Z,1.20
2022-11-12T13:12:05.003Z,1.40
2022-11-12T13:14:31.366Z,1.40
2022-11-12T13:17:00.787Z,1.45
2022-11-12T13:19:28.179Z,1.40
2022-11-12T13:22:13.380Z,1.20
2022-11-12T13:24:58.426Z,1.20
2022-11-12T13:27:40.350Z,0.90
2022-11-12T13:30:12.985Z,1.10
2022-11-12T13:32:44.558Z,1.55
2022-11-12T13:35:20.846Z,3.92
2022-11-12T13:38:04.617Z,5.32
2022-11-12T13:40:30.999Z,4.85
2022-11-12T13:43:09.947Z,5.35
2022-11-12T13:45:57.148Z,5.25
2022-11-12T13:48:23.665Z,4.47
2022-11-12T13:50:55.408Z,4.32
2022-11-12T13:53:26.348Z,3.97
2022-11-12T13:55:53.524Z,3.88
2022-11-12T13:58:27.970Z,4.35
2022-11-12T14:00:55.739Z,4.47
2022-11-12T14:03:22.842Z,3.90
2022-11-12T14:05:50.215Z,3.65
2022-11-12T14:08:45.955Z,4.00
2022-11-12T14:11:18.534Z,3.77
2022-11-12T14:13:51.052Z,3.55
2022-11-12T14:16:37.745Z,3.03
2022-11-12T14:19:23.088Z,2.45
2022-11-12T14:22:10.969Z,3.03
2022-11-12T14:24:37.366Z,1.98
2022-11-12T14:27:03.861Z,1.88
2022-11-12T14:29:35.312Z,1.58
2022-11-12T14:32:03.052Z,1.80
2022-11-12T14:34:29.366Z,2.50
2022-11-12T14:36:57.425Z,2.63
2022-11-12T14:39:25.709Z,2.70
2022-11-12T14:41:52.387Z,3.10
2022-11-12T14:44:21.332Z,3.05
2022-11-12T14:46:52.051Z,2.90
2022-11-12T14:49:21.603Z,3.13
2022-11-12T14:51:50.651Z,2.60
2022-11-12T14:54:25.784Z,2.17
2022-11-12T14:56:52.328Z,2.60
2022-11-12T14:59:18.815Z,2.35
2022-11-12T15:02:30.183Z,2.50
2022-11-12T15:04:59.133Z,2.13
2022-11-12T15:07:25.696Z,2.75
2022-11-12T15:09:52.154Z,2.30
2022-11-12T15:12:26.141Z,2.03
2022-11-12T15:14:53.278Z,1.90
2022-11-12T15:17:30.916Z,1.98
2022-11-12T15:20:12.579Z,2.38
2022-11-12T15:22:39.142Z,2.25
2022-11-12T15:25:13.148Z,2.08
2022-11-12T15:27:43.287Z,2.05
2022-11-12T15:30:20.634Z,2.00
2022-11-12T15:32:47.227Z,2.08
2022-11-12T15:35:43.837Z,2.10
2022-11-12T15:38:13.157Z,2.60
2022-11-12T15:40:45.626Z,3.13
2022-11-12T15:43:17.281Z,2.83
2022-11-12T15:45:43.808Z,3.10
2022-11-12T15:48:13.097Z,3.03
2022-11-12T15:50:39.563Z,2.60
2022-11-12T15:53:05.984Z,3.40
2022-11-12T15:55:32.821Z,2.80
2022-11-12T15:57:59.280Z,2.50
2022-11-12T16:00:30.526Z,2.45
2022-11-12T16:02:59.378Z,2.70
2022-11-12T16:05:26.198Z,3.53
2022-11-12T16:07:52.566Z,2.88
2022-11-12T16:10:19.368Z,3.17
2022-11-12T16:12:47.439Z,2.60
2022-11-12T16:15:14.698Z,3.00
2022-11-12T16:17:41.141Z,3.15
2022-11-12T16:20:18.668Z,2.95
2022-11-12T16:22:45.875Z,3.20
2022-11-12T16:25:12.263Z,3.15
2022-11-12T16:27:39.437Z,3.60
2022-11-12T16:30:22.288Z,2.97
2022-11-12T16:32:48.809Z,3.65
2022-11-12T16:35:16.379Z,2.92
2022-11-12T16:37:43.435Z,3.60
2022-11-12T16:40:13.216Z,3.13
2022-11-12T16:42:45.729Z,4.13
2022-11-12T16:45:13.158Z,3.70
2022-11-12T16:47:47.196Z,3.60
2022-11-12T16:50:14.806Z,3.50
2022-11-12T16:52:41.449Z,3.35
2022-11-12T16:55:08.037Z,3.55
2022-11-12T16:57:34.505Z,3.63
2022-11-12T17:00:01.021Z,3.72
2022-11-12T17:02:27.463Z,3.97
2022-11-12T17:04:53.881Z,3.58
2022-11-12T17:07:20.323Z,4.80
2022-11-12T17:09:46.728Z,3.90
2022-11-12T17:12:13.430Z,3.72
2022-11-12T17:14:39.796Z,3.75
2022-11-12T17:17:06.207Z,4.13
2022-11-12T17:19:32.612Z,4.57
2022-11-12T17:21:59.018Z,4.63
2022-11-12T17:24:26.285Z,4.55
2022-11-12T17:26:52.792Z,4.53
2022-11-12T17:29:19.239Z,4.40
2022-11-12T17:31:51.716Z,4.88
2022-11-12T17:34:18.159Z,4.68
2022-11-12T17:36:44.627Z,5.40
2022-11-12T17:39:12.259Z,5.75
2022-11-12T17:41:38.761Z,5.90
2022-11-12T17:44:05.528Z,8.32
2022-11-12T17:46:36.136Z,6.60
2022-11-12T17:49:02.553Z,6.72
2022-11-12T17:51:29.909Z,6.43
2022-11-12T17:53:56.325Z,6.88
2022-11-12T17:56:23.180Z,6.45
2022-11-12T17:58:50.274Z,6.95
2022-11-12T18:01:24.004Z,5.88
2022-11-12T18:03:52.193Z,6.28
2022-11-12T18:06:21.656Z,7.72
2022-11-12T18:08:51.860Z,8.60
2022-11-12T18:11:18.269Z,8.00
2022-11-12T18:13:44.668Z,7.88
2022-11-12T18:16:22.005Z,9.45
2022-11-12T18:18:48.768Z,8.32
2022-11-12T18:21:15.452Z,8.48
2022-11-12T18:23:43.697Z,7.60
2022-11-12T18:26:13.867Z,8.27
2022-11-12T18:28:40.265Z,9.52
2022-11-12T18:31:07.255Z,11.00
2022-11-12T18:33:34.280Z,12.52
2022-11-12T18:36:04.705Z,11.48
2022-11-12T18:38:35.270Z,10.70
2022-11-12T18:41:06.138Z,11.35
2022-11-12T18:43:32.973Z,13.10
2022-11-12T18:46:00.426Z,14.25
2022-11-12T18:48:27.846Z,12.45
2022-11-12T18:51:01.909Z,13.68
2022-11-12T18:53:29.123Z,12.55
2022-11-12T18:55:56.632Z,12.35
2022-11-12T18:58:23.042Z,9.38
2022-11-12T19:00:49.532Z,9.70
2022-11-12T19:03:15.991Z,11.90
2022-11-12T19:05:42.640Z,11.57
2022-11-12T19:08:09.121Z,9.75
2022-11-12T19:10:35.665Z,12.98
2022-11-12T19:13:04.070Z,13.45
2022-11-12T19:15:33.969Z,12.80
2022-11-12T19:18:01.239Z,14.93
2022-11-12T19:20:28.063Z,12.20
2022-11-12T19:22:54.547Z,13.98
2022-11-12T19:25:22.007Z,21.73
2022-11-12T19:27:48.686Z,19.60
2022-11-12T19:30:15.323Z,20.33
2022-11-12T19:32:41.795Z,19.77
2022-11-12T19:35:08.443Z,20.92
2022-11-12T19:37:34.905Z,20.30
2022-11-12T19:40:01.354Z,20.08
2022-11-12T19:42:27.732Z,19.33
2022-11-12T19:44:54.144Z,19.65
2022-11-12T19:47:20.488Z,18.02
2022-11-12T19:49:46.867Z,15.23
2022-11-12T19:52:13.468Z,16.48
2022-11-12T19:54:39.921Z,17.67
2022-11-12T19:57:06.299Z,16.08
2022-11-12T19:59:32.652Z,17.83
2022-11-12T20:01:59.071Z,16.35
2022-11-12T20:04:25.433Z,15.90
2022-11-12T20:06:51.897Z,17.15
2022-11-12T20:09:18.336Z,16.80
2022-11-12T20:11:44.714Z,16.73
2022-11-12T20:14:11.174Z,18.83
2022-11-12T20:16:38.958Z,17.90
2022-11-12T20:19:05.357Z,17.25
2022-11-12T20:21:31.811Z,17.23
2022-11-12T20:23:58.263Z,15.95
2022-11-12T20:26:26.739Z,14.10
2022-11-12T20:28:53.454Z,14.57
2022-11-12T20:31:20.754Z,13.15
2022-11-12T20:33:49.635Z,13.43
2022-11-12T20:36:17.566Z,13.38
2022-11-12T20:38:44.478Z,9.95
2022-11-12T20:41:15.127Z,13.52
2022-11-12T20:43:41.793Z,14.77
2022-11-12T20:46:08.167Z,14.23
2022-11-12T20:48:37.780Z,11.13
2022-11-12T20:51:24.993Z,11.55
2022-11-12T20:53:58.944Z,14.50
2022-11-12T20:56:27.511Z,14.93
2022-11-12T20:58:54.289Z,14.15
2022-11-12T21:01:22.133Z,14.35
2022-11-12T21:03:48.592Z,15.02
2022-11-12T21:06:16.249Z,14.82
2022-11-12T21:08:43.689Z,15.57
2022-11-12T21:11:11.719Z,14.30
2022-11-12T21:13:38.761Z,15.10
2022-11-12T21:16:05.635Z,14.00
2022-11-12T21:18:32.398Z,14.60
2022-11-12T21:21:07.788Z,14.77
2022-11-12T21:23:35.499Z,12.95
2022-11-12T21:26:06.119Z,15.25
2022-11-12T21:28:35.113Z,16.20
2022-11-12T21:31:03.059Z,14.15
2022-11-12T21:33:29.431Z,15.00
2022-11-12T21:35:55.880Z,15.05
2022-11-12T21:38:22.990Z,16.40
2022-11-12T21:40:50.539Z,16.40
2022-11-12T21:43:16.940Z,15.15
2022-11-12T21:45:46.989Z,12.52
2022-11-12T21:48:13.345Z,13.30
2022-11-12T21:50:39.777Z,11.10
2022-11-12T21:53:06.155Z,12.63
2022-11-12T21:55:32.551Z,11.40
2022-11-12T21:57:58.919Z,11.90
2022-11-12T22:00:41.389Z,12.65
2022-11-12T22:03:08.647Z,12.80
2022-11-12T22:05:37.825Z,12.77
2022-11-12T22:08:04.314Z,14.15
2022-11-12T22:10:31.256Z,13.60
2022-11-12T22:13:26.531Z,12.68
2022-11-12T22:15:44.060Z,14.85
2022-11-12T22:18:10.450Z,14.13
2022-11-12T22:20:36.787Z,14.15
2022-11-12T22:23:03.156Z,14.70
2022-11-12T22:25:29.564Z,13.63
2022-11-12T22:27:55.912Z,12.18
2022-11-12T22:30:22.239Z,12.38
2022-11-12T22:32:48.623Z,11.38
2022-11-12T22:35:15.092Z,10.68
2022-11-12T22:37:41.988Z,10.73
2022-11-12T22:40:13.186Z,10.65
2022-11-12T22:42:40.015Z,11.05
2022-11-12T22:45:06.762Z,11.48
2022-11-12T22:47:33.308Z,11.48
2022-11-12T22:49:59.662Z,12.07
2022-11-12T22:52:26.056Z,11.68
2022-11-12T22:54:52.467Z,12.88
2022-11-12T22:57:18.842Z,12.13
2022-11-12T22:59:45.208Z,12.52
2022-11-12T23:02:11.587Z,12.80
2022-11-12T23:04:38.125Z,12.88
2022-11-12T23:07:04.761Z,12.60
2022-11-12T23:09:31.176Z,14.20
2022-11-12T23:11:57.514Z,14.73
2022-11-12T23:14:24.124Z,13.70
2022-11-12T23:16:50.448Z,13.35
2022-11-12T23:19:16.787Z,13.43
2022-11-12T23:21:43.495Z,14.00
2022-11-12T23:24:09.892Z,14.15
2022-11-12T23:26:36.259Z,13.85
2022-11-12T23:29:02.987Z,13.57
2022-11-12T23:31:29.978Z,14.10
2022-11-12T23:33:57.293Z,14.02
2022-11-12T23:36:24.435Z,13.77
2022-11-12T23:38:51.386Z,13.40
2022-11-12T23:41:19.248Z,13.75
2022-11-12T23:43:45.744Z,14.10
2022-11-12T23:46:12.199Z,14.85
2022-11-12T23:48:38.585Z,14.00
2022-11-12T23:51:06.299Z,13.38
2022-11-12T23:53:33.581Z,14.30
2022-11-12T23:56:00.481Z,13.43
2022-11-12T23:58:27.287Z,13.50
